High Level Airport
CYOJ : now visible

Airfield :











YOU CAN JOIN US ON...

 
LOGIN :

Register | Disclaimer

   EN    FR    IT 

 









Legend :    VFR   Marginal VFR   IFR   Intensive IFR   Very Intensive IFR
Visi :
Ceiling :
>= 8 km
>= 3000ft
5 to 8 km
1000 to 3000 ft
1500m to 5 km
500 to 1000 ft
800 to 1500m
200 to 500 ft
< 800m
< 200 ft
Symbols :   Thunderstorms  Fog  Heavy snow  Heavy precipitations  Wind > 20 kt






- Airport Elevation : 1110 ft
- IATA code : YOJ


CYOJ - High Level

CURRENT METAR :
  • 161200Z AUTO 36007KT 9SM CLR M22/M24 A3004 RMK SLP214

EXPIRED METARs :
  • 161100Z AUTO 35008KT 9SM CLR M20/M22 A3002 RMK SLP207
  • 161000Z AUTO 34009KT 9SM CLR M19/M20 A2999 RMK SLP196

TAF TAF CYOJ
Valid from the 16 at 07:00 until the 16 at 19:00 UTC


160638Z 1607/1619 35010KT P6SM SCT180
BECMG 1615/1617 VRB03KT RMK FCST BASED ON AUTO OBS. NXT FCST BY 161300Z



MET'MAP, your aeronautical weather chart ! - Copyright ORBIFLY December 2007 - Disclaimer

ORBIFLY MET'MAP TEAM :

Programming & Development : Alexandra Zaïnal
Concept & original design : Baudouin d'Aumeries
Assistance for programming : Marc-Olivier Méhu
Technical & hardware support : Manuel Goepfert

Contact : metmap@orbifly.com




SOURCES & CREDITS :

   NOAA       Earth
Advisory